createdAt,value
2017-11-21T00:00:04.506Z,4
2017-11-21T00:05:03.195Z,6
2017-11-21T00:10:02.738Z,5
2017-11-21T00:15:03.250Z,4
2017-11-21T00:20:02.816Z,5
2017-11-21T00:25:03.356Z,3
2017-11-21T00:30:02.850Z,4
2017-11-21T00:35:03.339Z,4
2017-11-21T00:40:03.025Z,5
2017-11-21T00:45:02.673Z,5
2017-11-21T00:50:03.178Z,5
2017-11-21T01:00:03.104Z,3
2017-11-21T01:05:02.779Z,2
2017-11-21T01:10:03.366Z,4
2017-11-21T01:15:02.829Z,5
2017-11-21T01:20:03.395Z,3
2017-11-21T01:25:03.011Z,5
2017-11-21T01:30:02.626Z,7
2017-11-21T01:35:03.357Z,3
2017-11-21T01:40:02.823Z,5
2017-11-21T01:45:03.475Z,5
2017-11-21T01:50:03.043Z,7
2017-11-21T01:55:03.478Z,7
2017-11-21T02:00:02.962Z,7
2017-11-21T02:05:03.550Z,4
2017-11-21T02:10:03.116Z,4
2017-11-21T02:15:03.559Z,5
2017-11-21T02:20:03.019Z,4
2017-11-21T02:25:02.652Z,4
2017-11-21T02:30:03.163Z,5
2017-11-21T02:35:02.726Z,4
2017-11-21T02:40:03.266Z,5
2017-11-21T02:45:02.872Z,6
2017-11-21T02:50:03.270Z,4
2017-11-21T02:55:02.794Z,5
2017-11-21T03:00:03.223Z,4
2017-11-21T03:05:02.711Z,3
2017-11-21T03:10:03.254Z,3
2017-11-21T03:15:02.688Z,4
2017-11-21T03:20:03.093Z,6
2017-11-21T03:30:03.435Z,4
2017-11-21T03:35:02.897Z,3
2017-11-21T03:40:03.569Z,5
2017-11-21T03:45:03.104Z,2
2017-11-21T03:50:02.671Z,4
2017-11-21T03:55:03.078Z,2
2017-11-21T04:00:02.618Z,2
2017-11-21T04:05:03.335Z,4
2017-11-21T04:10:02.832Z,2
2017-11-21T04:15:03.441Z,2
2017-11-21T04:20:02.849Z,3
2017-11-21T04:25:03.446Z,3
2017-11-21T04:30:03.022Z,3
2017-11-21T04:35:03.485Z,4
2017-11-21T04:40:03.122Z,4
2017-11-21T04:45:08.566Z,3
2017-11-21T04:50:02.956Z,2
2017-11-21T04:55:03.760Z,4
2017-11-21T05:00:03.413Z,4
2017-11-21T05:05:02.824Z,3
2017-11-21T05:10:03.385Z,3
2017-11-21T05:15:02.836Z,3
2017-11-21T05:20:03.476Z,0
2017-11-21T05:25:03.089Z,2
2017-11-21T05:30:03.091Z,0
2017-11-21T05:35:02.734Z,4
2017-11-21T05:40:03.419Z,4
2017-11-21T05:45:03.373Z,4
2017-11-21T05:50:02.942Z,3
2017-11-21T05:55:03.437Z,4
2017-11-21T06:00:03.032Z,2
2017-11-21T06:05:03.482Z,3
2017-11-21T06:10:03.004Z,3
2017-11-21T06:15:03.591Z,4
2017-11-21T06:20:03.094Z,3
2017-11-21T06:25:03.518Z,2
2017-11-21T06:30:03.123Z,3
2017-11-21T06:35:02.728Z,3
2017-11-21T06:40:03.228Z,5
2017-11-21T06:45:02.650Z,4
2017-11-21T06:50:03.129Z,5
2017-11-21T06:55:03.575Z,4
2017-11-21T07:00:03.375Z,2
2017-11-21T07:05:02.903Z,4
2017-11-21T07:10:03.628Z,4
2017-11-21T07:15:03.131Z,6
2017-11-21T07:20:03.623Z,3
2017-11-21T07:25:03.273Z,3
2017-11-21T07:30:02.866Z,5
2017-11-21T07:35:03.336Z,3
2017-11-21T07:40:02.862Z,4
2017-11-21T07:45:03.328Z,4
2017-11-21T07:50:02.842Z,4
2017-11-21T07:55:03.339Z,3
2017-11-21T08:00:03.298Z,4
2017-11-21T08:05:02.830Z,5
2017-11-21T08:10:03.491Z,3
2017-11-21T08:15:02.968Z,4
2017-11-21T08:20:03.512Z,2
2017-11-21T08:25:03.305Z,1
2017-11-21T08:30:03.165Z,5
2017-11-21T08:35:02.788Z,4
2017-11-21T08:40:03.422Z,4
2017-11-21T08:45:02.896Z,4
2017-11-21T08:50:03.345Z,5
2017-11-21T08:55:02.803Z,4
2017-11-21T09:00:03.285Z,5
2017-11-21T09:05:02.867Z,3
2017-11-21T09:10:03.429Z,3
2017-11-21T09:15:02.954Z,4
2017-11-21T09:20:02.833Z,3
2017-11-21T09:25:03.429Z,2
2017-11-21T09:30:03.014Z,3
2017-11-21T09:35:02.689Z,3
2017-11-21T09:40:03.393Z,4
2017-11-21T09:45:02.853Z,0
2017-11-21T09:50:03.347Z,3
2017-11-21T09:55:02.965Z,5
2017-11-21T10:00:03.432Z,5
2017-11-21T10:05:02.954Z,7
2017-11-21T10:10:03.636Z,4
2017-11-21T10:15:03.135Z,4
2017-11-21T10:20:02.732Z,5
2017-11-21T10:25:03.380Z,5
2017-11-21T10:30:02.945Z,5
2017-11-21T10:35:03.603Z,5
2017-11-21T10:40:03.358Z,5
2017-11-21T10:45:02.962Z,5
2017-11-21T10:50:02.679Z,5
2017-11-21T10:55:03.277Z,5
2017-11-21T11:00:02.919Z,6
2017-11-21T11:05:03.456Z,8
2017-11-21T11:10:03.141Z,3
2017-11-21T11:15:03.570Z,7
2017-11-21T11:20:03.090Z,6
2017-11-21T11:25:03.578Z,2
2017-11-21T11:30:02.996Z,5
2017-11-21T11:35:03.575Z,3
2017-11-21T11:40:03.102Z,7
2017-11-21T11:45:02.740Z,4
2017-11-21T11:50:03.424Z,6
2017-11-21T11:55:03.011Z,8
2017-11-21T12:00:03.618Z,6
2017-11-21T12:05:03.274Z,7
2017-11-21T12:10:02.774Z,8
2017-11-21T12:15:03.214Z,9
2017-11-21T12:20:02.835Z,10
2017-11-21T12:25:03.463Z,3
2017-11-21T12:30:02.973Z,8
2017-11-21T12:35:02.624Z,10
2017-11-21T12:40:03.398Z,9
2017-11-21T12:45:03.039Z,7
2017-11-21T12:50:03.506Z,9
2017-11-21T12:55:03.101Z,6
2017-11-21T13:00:02.737Z,13
2017-11-21T13:05:03.307Z,5
2017-11-21T13:10:02.802Z,5
2017-11-21T13:15:03.264Z,8
2017-11-21T13:20:03.093Z,9
2017-11-21T13:25:03.563Z,9
2017-11-21T13:30:03.189Z,9
2017-11-21T13:35:02.723Z,5
2017-11-21T13:40:03.247Z,7
2017-11-21T13:45:02.798Z,4
2017-11-21T13:50:03.355Z,6
2017-11-21T13:55:03.500Z,6
2017-11-21T14:00:02.960Z,7
2017-11-21T14:05:03.516Z,5
2017-11-21T14:10:03.134Z,8
2017-11-21T14:15:03.581Z,7
2017-11-21T14:20:03.257Z,6
2017-11-21T14:25:02.862Z,7
2017-11-21T14:30:03.453Z,13
2017-11-21T14:35:03.024Z,6
2017-11-21T14:40:02.812Z,7
2017-11-21T14:45:03.506Z,7
2017-11-21T14:50:02.966Z,7
2017-11-21T14:55:03.625Z,4
2017-11-21T15:00:03.041Z,9
2017-11-21T15:05:03.633Z,5
2017-11-21T15:10:03.170Z,6
2017-11-21T15:15:02.724Z,9
2017-11-21T15:20:03.262Z,10
2017-11-21T15:25:02.926Z,9
2017-11-21T15:30:03.410Z,6
2017-11-21T15:35:03.213Z,8
2017-11-21T15:40:02.758Z,7
2017-11-21T15:45:03.174Z,11
2017-11-21T15:50:02.822Z,7
2017-11-21T15:55:03.443Z,8
2017-11-21T16:00:03.029Z,9
2017-11-21T16:05:02.726Z,6
2017-11-21T16:10:03.456Z,5
2017-11-21T16:15:03.070Z,7
2017-11-21T16:20:03.618Z,7
2017-11-21T16:25:03.149Z,6
2017-11-21T16:30:02.774Z,6
2017-11-21T16:35:03.364Z,8
2017-11-21T16:40:03.076Z,9
2017-11-21T16:50:03.407Z,9
2017-11-21T16:55:03.006Z,9
2017-11-21T17:00:03.526Z,10
2017-11-21T17:05:03.221Z,9
2017-11-21T17:10:02.815Z,7
2017-11-21T17:15:03.437Z,8
2017-11-21T17:20:03.112Z,8
2017-11-21T17:25:02.720Z,6
2017-11-21T17:30:03.161Z,10
2017-11-21T17:35:02.864Z,12
2017-11-21T17:40:03.391Z,10
2017-11-21T17:45:03.020Z,8
2017-11-21T17:50:03.584Z,8
2017-11-21T17:55:03.130Z,8
2017-11-21T18:00:02.747Z,6
2017-11-21T18:05:03.364Z,7
2017-11-21T18:10:02.887Z,9
2017-11-21T18:15:03.537Z,9
2017-11-21T18:20:03.210Z,8
2017-11-21T18:25:02.723Z,10
2017-11-21T18:30:03.231Z,7
2017-11-21T18:35:02.780Z,9
2017-11-21T18:40:03.243Z,7
2017-11-21T18:45:02.830Z,6
2017-11-21T18:50:03.457Z,10
2017-11-21T18:55:03.001Z,7
2017-11-21T19:00:03.541Z,9
2017-11-21T19:05:03.150Z,10
2017-11-21T19:10:02.815Z,10
2017-11-21T19:15:03.357Z,14
2017-11-21T19:20:02.929Z,6
2017-11-21T19:25:03.568Z,11
2017-11-21T19:30:02.962Z,7
2017-11-21T19:35:03.628Z,10
2017-11-21T19:40:03.129Z,6
2017-11-21T19:45:03.606Z,8
2017-11-21T19:50:03.031Z,6
2017-11-21T19:55:02.625Z,6
2017-11-21T20:00:03.208Z,7
2017-11-21T20:05:02.702Z,5
2017-11-21T20:10:03.400Z,8
2017-11-21T20:15:03.005Z,8
2017-11-21T20:20:02.672Z,7
2017-11-21T20:25:03.412Z,6
2017-11-21T20:30:02.972Z,7
2017-11-21T20:35:03.557Z,7
2017-11-21T20:40:03.258Z,7
2017-11-21T20:45:02.632Z,9
2017-11-21T20:50:03.189Z,6
2017-11-21T20:55:02.713Z,7
2017-11-21T21:00:03.402Z,8
2017-11-21T21:05:02.899Z,9
2017-11-21T21:10:03.503Z,10
2017-11-21T21:15:03.167Z,8
2017-11-21T21:20:02.769Z,10
2017-11-21T21:25:03.368Z,10
2017-11-21T21:30:02.907Z,8
2017-11-21T21:35:03.409Z,12
2017-11-21T21:40:03.100Z,7
2017-11-21T21:45:03.624Z,8
2017-11-21T21:50:03.127Z,7
2017-11-21T21:55:02.704Z,6
2017-11-21T22:00:03.411Z,6
2017-11-21T22:05:02.994Z,6
2017-11-21T22:10:03.518Z,9
2017-11-21T22:15:03.002Z,9
2017-11-21T22:20:02.670Z,8
2017-11-21T22:25:03.161Z,7
2017-11-21T22:30:03.132Z,8
2017-11-21T22:35:03.535Z,4
2017-11-21T22:40:03.143Z,9
2017-11-21T22:45:02.667Z,7
2017-11-21T22:50:03.323Z,7
2017-11-21T22:55:02.785Z,7
2017-11-21T23:00:03.375Z,9
2017-11-21T23:05:02.931Z,9
2017-11-21T23:10:03.570Z,9
2017-11-21T23:15:03.050Z,8
2017-11-21T23:20:03.575Z,9
2017-11-21T23:25:03.080Z,10
2017-11-21T23:30:02.857Z,14
2017-11-21T23:35:03.401Z,6
2017-11-21T23:40:03.016Z,10
2017-11-21T23:45:03.564Z,7
2017-11-21T23:50:03.105Z,14
2017-11-21T23:55:03.519Z,8
